Lake Ozette, Washington
Current Conditions -  °F | °C
As of 7:53 PM on Thursday 18 Dec 2014 (Local Time) from KUIL Reporting Station
Light Rain Light Rain  
Wind Chill: 48°   Ceiling: 4900
Heat Index: 48°   Visibility: 8mi
Dew Point: 47°   Wind: 0mph
Humidity: 96%   Direction: NA
Pressure: 29.63"   Gusts: NA
Location:  48.1788°N, 124.127°W
Report Text: KUIL 190353Z AUTO 00000KT 8SM -RA BKN049 OVC070 09/08 A2963 RMK AO2 PK WND 19030/0303 SLP033 P0012 T00890083
Loading
Personal Weather Stations






























Interactive Weather Map New forecast layout! Learn more

10-Day Weather Forecast

Advertisements
Track Severe Weather on mobile